Time;durP1;ratioP1;P1;durP2;ratioP2;P2;SDS_P1;SDS_P2;PMS_P1;PMS_P2;Temp;Humidity;BMP_temperature;BMP_pressure;BME280_temperature;BME280_humidity;BME280_pressure;Samples;Min_cycle;Max_cycle;Signal;HPM_P1;HPM_P2
2022/07/16 00:01:57;;;;;;;3.50;0.73;;;;;;;15.16;68.17;100740.84;2023854;29;20063;-66
2022/07/16 00:03:02;;;;;;;5.68;0.70;;;;;;;15.20;67.62;100737.25;2020283;29;20044;-66
2022/07/16 00:04:05;;;;;;;5.07;0.98;;;;;;;15.18;68.08;100735.94;2031727;29;20066;-66
2022/07/16 00:05:10;;;;;;;2.00;0.85;;;;;;;15.18;67.95;100741.34;2031756;29;20063;-66
2022/07/16 00:06:18;;;;;;;6.15;0.88;;;;;;;15.18;68.21;100744.88;2031761;29;20158;-66
2022/07/16 00:07:21;;;;;;;8.30;1.02;;;;;;;15.17;68.18;100745.19;2024479;29;20064;-67
2022/07/16 00:08:24;;;;;;;7.47;1.02;;;;;;;15.15;68.20;100737.34;2024732;29;20052;-65
2022/07/16 00:09:26;;;;;;;2.78;0.70;;;;;;;15.21;68.32;100736.13;2031721;29;20059;-65
2022/07/16 00:10:33;;;;;;;2.60;0.55;;;;;;;15.22;67.99;100747.75;2032329;29;20052;-66
2022/07/16 00:11:36;;;;;;;4.80;0.90;;;;;;;15.15;68.69;100747.38;2032580;29;20059;-66
2022/07/16 00:12:40;;;;;;;2.58;1.15;;;;;;;15.14;68.52;100743.88;2031521;29;20538;-66
2022/07/16 00:13:42;;;;;;;4.03;0.77;;;;;;;15.16;68.33;100744.34;2031788;29;20056;-65
2022/07/16 00:14:45;;;;;;;1.27;0.70;;;;;;;15.16;68.53;100748.97;2031638;29;20055;-65
2022/07/16 00:15:50;;;;;;;4.28;0.70;;;;;;;15.19;68.21;100748.38;2024781;29;20059;-65
2022/07/16 00:16:53;;;;;;;7.35;0.90;;;;;;;15.19;68.70;100746.47;2031637;29;20404;-65
2022/07/16 00:19:20;;;;;;;2.17;0.80;;;;;;;15.14;68.68;100745.78;2016895;29;20048;-65
2022/07/16 00:20:30;;;;;;;3.30;0.80;;;;;;;15.12;69.01;100750.69;2024589;29;20052;-65
2022/07/16 00:21:43;;;;;;;2.85;0.70;;;;;;;15.14;69.08;100746.59;2025017;29;20056;-66
2022/07/16 00:22:50;;;;;;;4.20;0.60;;;;;;;15.19;68.93;100748.38;2025822;29;20068;-65
2022/07/16 00:23:57;;;;;;;1.02;0.77;;;;;;;15.23;68.60;100749.38;2026079;29;20060;-64
2022/07/16 00:25:06;;;;;;;3.47;0.70;;;;;;;15.19;68.82;100753.78;2031732;29;20056;-66
2022/07/16 00:26:12;;;;;;;3.55;0.90;;;;;;;15.22;68.66;100753.97;2032028;29;20044;-66
2022/07/16 00:27:18;;;;;;;2.50;0.60;;;;;;;15.22;68.62;100750.47;2031944;29;20387;-65
2022/07/16 00:28:23;;;;;;;4.07;0.98;;;;;;;15.23;68.57;100754.81;2032587;29;20070;-65
2022/07/16 00:29:30;;;;;;;5.35;1.20;;;;;;;15.17;68.69;100750.59;2023865;29;20063;-65
2022/07/16 00:30:33;;;;;;;2.97;0.60;;;;;;;15.21;68.66;100746.16;2018523;29;20063;-65
2022/07/16 00:31:35;;;;;;;1.42;0.60;;;;;;;15.21;68.71;100746.16;2031022;29;20052;-65
2022/07/16 00:32:37;;;;;;;8.23;1.95;;;;;;;15.23;68.59;100749.38;2031881;29;20048;-66
2022/07/16 00:33:44;;;;;;;5.63;0.93;;;;;;;15.24;68.54;100740.94;2031308;29;20058;-65
2022/07/16 00:34:48;;;;;;;5.55;1.20;;;;;;;15.24;68.45;100750.97;2031320;29;20199;-65
2022/07/16 00:35:52;;;;;;;4.10;0.90;;;;;;;15.25;68.62;100747.16;2032079;29;20056;-66
2022/07/16 00:36:55;;;;;;;5.68;1.10;;;;;;;15.25;68.72;100747.16;2031278;29;20515;-65
2022/07/16 00:37:58;;;;;;;2.22;0.70;;;;;;;15.22;68.81;100745.06;2032059;29;20523;-65
2022/07/16 00:39:00;;;;;;;3.30;1.10;;;;;;;15.20;68.88;100750.78;2031992;29;20500;-66
2022/07/16 00:40:07;;;;;;;5.40;0.90;;;;;;;15.18;68.61;100746.78;2032135;29;20048;-65
2022/07/16 00:41:21;;;;;;;4.97;0.73;;;;;;;15.18;68.65;100752.19;2031325;29;20086;-65
2022/07/16 00:42:23;;;;;;;3.50;1.20;;;;;;;15.17;69.07;100756.03;2029687;29;20050;-65
2022/07/16 00:43:30;;;;;;;2.30;0.90;;;;;;;15.17;69.14;100754.09;2023775;29;20064;-65
2022/07/16 00:44:35;;;;;;;2.25;0.80;;;;;;;15.16;69.17;100743.56;2016893;29;20041;-65
2022/07/16 00:45:42;;;;;;;4.00;0.88;;;;;;;15.13;69.02;100739.56;2026717;29;20461;-65
2022/07/16 00:46:46;;;;;;;4.00;0.85;;;;;;;15.12;69.24;100745.28;2038824;29;20048;-65
2022/07/16 00:47:48;;;;;;;2.42;0.95;;;;;;;15.14;69.16;100743.09;2031641;29;20078;-65
2022/07/16 00:48:54;;;;;;;5.25;0.70;;;;;;;15.09;69.12;100743.97;2024544;29;20048;-65
2022/07/16 00:49:58;;;;;;;3.70;0.82;;;;;;;15.04;69.76;100739.50;2032445;29;20036;-65
2022/07/16 00:51:06;;;;;;;1.77;0.75;;;;;;;15.07;69.45;100735.38;2032512;29;20048;-65
2022/07/16 00:52:08;;;;;;;3.00;0.85;;;;;;;15.07;69.30;100736.19;2036575;29;20530;-65
2022/07/16 00:53:18;;;;;;;6.70;1.48;;;;;;;15.06;69.66;100741.88;2038441;29;20490;-65
2022/07/16 00:54:24;;;;;;;4.78;1.10;;;;;;;15.04;69.53;100747.63;2038776;29;20070;-65
2022/07/16 00:55:27;;;;;;;1.90;0.75;;;;;;;14.96;69.91;100742.09;2034098;29;20056;-65
2022/07/16 00:56:32;;;;;;;3.30;0.90;;;;;;;14.94;70.04;100742.41;2032185;29;20048;-65
2022/07/16 00:57:37;;;;;;;4.15;0.98;;;;;;;14.99;69.78;100746.91;2031943;29;20052;-65
2022/07/16 00:58:44;;;;;;;5.30;0.82;;;;;;;15.00;69.66;100741.19;2032376;29;20048;-65
2022/07/16 00:59:50;;;;;;;4.10;0.75;;;;;;;15.04;69.85;100741.41;2024695;29;20032;-65
2022/07/16 01:00:57;;;;;;;2.10;0.75;;;;;;;15.03;69.86;100742.47;2026794;29;20060;-66
2022/07/16 01:02:01;;;;;;;4.20;0.90;;;;;;;15.03;69.52;100739.78;2023886;29;20544;-66
2022/07/16 01:03:07;;;;;;;4.72;0.93;;;;;;;15.03;69.58;100737.06;2022058;29;20036;-66
2022/07/16 01:04:10;;;;;;;4.80;1.40;;;;;;;15.06;69.51;100739.16;2030360;29;20047;-66
2022/07/16 01:05:16;;;;;;;8.93;1.35;;;;;;;15.06;69.39;100731.84;2023668;29;20056;-66
2022/07/16 01:06:23;;;;;;;5.53;0.80;;;;;;;15.06;69.67;100733.75;2024864;29;20053;-65
2022/07/16 01:07:26;;;;;;;2.40;0.88;;;;;;;15.04;69.86;100736.78;2015565;29;20061;-66
2022/07/16 01:08:32;;;;;;;3.85;0.90;;;;;;;15.05;69.83;100741.09;2017611;29;20097;-66
2022/07/16 01:09:39;;;;;;;7.15;1.00;;;;;;;15.04;69.83;100731.38;2030285;29;20048;-66
2022/07/16 01:10:45;;;;;;;4.18;0.88;;;;;;;15.02;69.60;100733.56;2024369;29;20627;-65
2022/07/16 01:11:50;;;;;;;2.90;0.75;;;;;;;15.03;69.52;100729.75;2023498;29;20056;-65
2022/07/16 01:13:02;;;;;;;5.10;0.90;;;;;;;14.97;69.82;100725.53;2023388;29;20048;-66
2022/07/16 01:14:07;;;;;;;3.28;1.05;;;;;;;15.01;69.81;100726.56;2024499;29;20051;-66
2022/07/16 01:15:12;;;;;;;2.20;1.00;;;;;;;15.00;70.01;100724.94;2024362;29;20055;-65
2022/07/16 01:16:19;;;;;;;2.35;1.33;;;;;;;15.02;69.65;100716.53;2027894;29;20048;-66
2022/07/16 01:17:22;;;;;;;5.38;1.00;;;;;;;15.02;69.83;100717.31;2031147;29;20099;-65
2022/07/16 01:18:25;;;;;;;3.53;0.90;;;;;;;15.03;69.69;100731.66;2032252;29;20060;-65
2022/07/16 01:19:32;;;;;;;3.72;1.10;;;;;;;14.98;69.87;100726.38;2032289;29;20496;-65
2022/07/16 01:20:41;;;;;;;1.60;0.90;;;;;;;14.97;70.19;100725.53;2039112;29;20062;-66
2022/07/16 01:21:43;;;;;;;2.60;0.85;;;;;;;14.99;70.04;100723.34;2034510;29;20048;-65
2022/07/16 01:22:48;;;;;;;4.18;0.77;;;;;;;15.00;69.97;100721.44;2031253;29;20063;-66
2022/07/16 01:23:51;;;;;;;3.70;0.88;;;;;;;15.00;69.79;100719.50;2031636;29;20059;-65
2022/07/16 01:24:54;;;;;;;3.60;0.90;;;;;;;15.01;69.60;100715.72;2032015;29;20048;-65
2022/07/16 01:25:56;;;;;;;4.35;0.90;;;;;;;14.99;69.92;100715.22;2031072;29;20051;-65
2022/07/16 01:27:00;;;;;;;8.68;1.05;;;;;;;15.00;69.91;100722.22;2023242;29;20049;-65
2022/07/16 01:28:06;;;;;;;4.05;0.90;;;;;;;15.00;69.88;100718.72;2031213;29;20064;-65
2022/07/16 01:29:08;;;;;;;3.63;0.90;;;;;;;14.93;70.15;100719.13;2032179;29;20074;-65
2022/07/16 01:30:11;;;;;;;4.70;1.08;;;;;;;14.95;70.15;100716.94;2031161;29;20846;-65
2022/07/16 01:31:13;;;;;;;6.32;0.90;;;;;;;14.97;69.76;100712.00;2030929;29;20063;-65
2022/07/16 01:32:15;;;;;;;5.32;1.00;;;;;;;14.97;69.90;100722.84;2031564;29;20063;-65
2022/07/16 01:33:38;;;;;;;5.93;1.55;;;;;;;14.94;69.68;100715.34;2031998;29;20052;-66
2022/07/16 01:34:49;;;;;;;5.80;0.70;;;;;;;14.95;69.71;100716.94;2031326;29;20048;-66
2022/07/16 01:35:58;;;;;;;3.92;0.93;;;;;;;14.96;69.67;100715.81;2016916;29;20068;-66
2022/07/16 01:37:05;;;;;;;5.40;0.90;;;;;;;14.93;69.76;100711.00;2025452;29;20037;-66
2022/07/16 01:38:15;;;;;;;5.25;1.00;;;;;;;14.91;69.93;100713.25;2031464;29;20040;-66
2022/07/16 01:39:17;;;;;;;3.92;0.82;;;;;;;14.93;70.10;100712.94;2024842;29;20135;-66
2022/07/16 01:40:22;;;;;;;1.75;0.85;;;;;;;14.93;70.00;100707.50;2030482;29;20067;-66
2022/07/16 01:41:29;;;;;;;2.90;0.80;;;;;;;14.90;70.02;100710.81;2024438;29;20052;-66
2022/07/16 01:42:34;;;;;;;1.30;0.90;;;;;;;14.92;69.93;100704.00;2024237;29;20417;-67
2022/07/16 01:43:42;;;;;;;3.75;0.90;;;;;;;14.92;70.00;100712.13;2023423;29;20048;-66
2022/07/16 01:44:47;;;;;;;3.30;0.98;;;;;;;14.92;70.04;100711.34;2023528;29;20059;-66
2022/07/16 01:45:53;;;;;;;3.83;0.80;;;;;;;14.89;69.87;100707.31;2027093;29;20052;-66
2022/07/16 01:46:59;;;;;;;2.55;0.80;;;;;;;14.89;70.12;100711.94;2032218;29;20060;-66
2022/07/16 01:48:04;;;;;;;1.90;1.10;;;;;;;14.89;69.95;100710.03;2023244;29;20064;-66
2022/07/16 01:49:07;;;;;;;2.33;0.80;;;;;;;14.90;69.80;100713.53;2023850;29;20052;-66
2022/07/16 01:50:12;;;;;;;7.70;1.08;;;;;;;14.90;69.94;100703.50;2031018;29;20048;-66
2022/07/16 01:51:14;;;;;;;2.65;0.63;;;;;;;14.88;70.21;100697.59;2029188;29;20071;-66
2022/07/16 01:52:21;;;;;;;6.03;1.00;;;;;;;14.84;70.24;100699.28;2023810;29;20531;-66
2022/07/16 01:53:28;;;;;;;4.68;0.70;;;;;;;14.81;70.29;100705.31;2023803;29;20041;-65
2022/07/16 01:54:32;;;;;;;3.58;1.30;;;;;;;14.84;70.19;100702.00;2023401;29;20049;-66
2022/07/16 01:55:36;;;;;;;3.78;1.15;;;;;;;14.86;70.29;100691.69;2021082;29;20037;-66
2022/07/16 01:56:40;;;;;;;3.65;0.88;;;;;;;14.80;70.36;100695.59;2024136;29;20036;-66
2022/07/16 01:57:43;;;;;;;5.10;1.88;;;;;;;14.80;70.50;100698.31;2015806;29;20061;-65
2022/07/16 01:58:47;;;;;;;6.10;0.90;;;;;;;14.77;70.90;100697.00;2016397;29;20068;-65
2022/07/16 01:59:50;;;;;;;3.38;0.80;;;;;;;14.79;70.60;100694.00;2031530;29;20431;-67
2022/07/16 02:00:55;;;;;;;4.32;0.88;;;;;;;14.78;70.39;100697.81;2027397;29;20073;-66
2022/07/16 02:01:57;;;;;;;4.50;0.80;;;;;;;14.70;70.75;100702.03;2023738;29;20044;-66
2022/07/16 02:03:06;;;;;;;4.95;1.05;;;;;;;14.72;70.99;100691.72;2020753;29;20557;-66
2022/07/16 02:04:14;;;;;;;2.17;0.80;;;;;;;14.77;70.73;100698.91;2009385;29;20057;-67
2022/07/16 02:05:17;;;;;;;5.32;0.90;;;;;;;14.77;71.07;100699.72;2010346;29;20065;-66
2022/07/16 02:06:27;;;;;;;4.80;1.00;;;;;;;14.76;70.46;100698.13;2023479;29;20121;-66
2022/07/16 02:07:33;;;;;;;3.40;0.80;;;;;;;14.78;70.43;100695.09;2024129;29;20056;-66
2022/07/16 02:08:41;;;;;;;2.65;1.02;;;;;;;14.78;70.69;100693.19;2024724;29;20044;-66
2022/07/16 02:09:45;;;;;;;2.17;0.70;;;;;;;14.73;71.04;100693.31;2024811;29;20416;-66
2022/07/16 02:10:49;;;;;;;6.75;0.90;;;;;;;14.73;70.77;100697.94;2024799;29;20053;-66
2022/07/16 02:11:52;;;;;;;5.43;0.90;;;;;;;14.72;70.72;100697.13;2018119;29;20068;-66
2022/07/16 02:13:00;;;;;;;5.95;1.02;;;;;;;14.69;70.91;100696.91;2017885;29;20417;-67
2022/07/16 02:14:02;;;;;;;5.13;0.70;;;;;;;14.70;70.97;100698.53;2025209;29;20055;-66
2022/07/16 02:15:06;;;;;;;7.22;1.10;;;;;;;14.70;70.84;100693.13;2024537;29;20749;-66
2022/07/16 02:16:09;;;;;;;4.80;0.90;;;;;;;14.70;71.02;100688.50;2017590;29;20052;-66
2022/07/16 02:17:11;;;;;;;2.47;0.70;;;;;;;14.70;70.95;100687.72;2024892;29;20064;-67
2022/07/16 02:18:13;;;;;;;1.08;0.70;;;;;;;14.72;70.86;100683.59;2017184;29;20048;-66
2022/07/16 02:19:16;;;;;;;3.38;0.77;;;;;;;14.69;71.19;100686.09;2010094;29;20060;-66
2022/07/16 02:20:20;;;;;;;4.38;0.70;;;;;;;14.69;71.04;100692.31;2032277;29;20040;-65
2022/07/16 02:21:28;;;;;;;2.53;0.90;;;;;;;14.71;70.91;100683.88;2031015;29;20048;-65
2022/07/16 02:22:30;;;;;;;5.68;1.00;;;;;;;14.70;70.96;100685.78;2031547;29;20059;-66
2022/07/16 02:23:34;;;;;;;3.65;0.70;;;;;;;14.66;70.85;100681.28;2030728;29;20483;-66
2022/07/16 02:24:39;;;;;;;1.63;0.70;;;;;;;14.67;71.09;100675.56;2017124;29;20437;-66
2022/07/16 02:25:43;;;;;;;2.80;0.77;;;;;;;14.63;71.39;100676.47;2025044;29;20400;-67
2022/07/16 02:26:45;;;;;;;3.08;0.68;;;;;;;14.65;71.22;100677.78;2031614;29;20492;-66
2022/07/16 02:28:08;;;;;;;3.92;0.85;;;;;;;14.68;70.95;100684.50;2023778;29;20048;-66
2022/07/16 02:29:10;;;;;;;1.42;0.70;;;;;;;14.62;71.31;100674.88;2018830;29;20056;-66
2022/07/16 02:30:13;;;;;;;3.50;0.70;;;;;;;14.66;71.16;100681.28;2015966;29;20057;-66
2022/07/16 02:31:15;;;;;;;1.77;0.60;;;;;;;14.66;71.20;100681.28;2023581;29;20547;-66
2022/07/16 02:32:25;;;;;;;2.13;0.80;;;;;;;14.67;71.29;100672.88;2031214;29;20060;-66
2022/07/16 02:33:27;;;;;;;4.22;0.90;;;;;;;14.66;70.96;100684.81;2032162;29;20044;-66
2022/07/16 02:34:29;;;;;;;2.38;0.70;;;;;;;14.67;71.00;100678.28;2023717;29;20059;-66
2022/07/16 02:35:37;;;;;;;5.05;1.00;;;;;;;14.68;71.26;100674.47;2015844;29;20044;-66
2022/07/16 02:36:39;;;;;;;2.90;0.85;;;;;;;14.68;70.81;100677.16;2031166;29;20062;-66
2022/07/16 02:37:42;;;;;;;4.82;0.80;;;;;;;14.63;71.22;100669.19;2031507;29;20052;-66
2022/07/16 02:38:50;;;;;;;2.35;0.70;;;;;;;14.66;70.97;100668.56;2031537;29;20059;-66
2022/07/16 02:40:01;;;;;;;1.50;0.70;;;;;;;14.69;71.19;100669.84;2032360;29;20080;-66
2022/07/16 02:41:11;;;;;;;1.52;0.70;;;;;;;14.69;70.73;100667.13;2032232;29;20056;-66
2022/07/16 02:42:13;;;;;;;2.55;0.70;;;;;;;14.69;70.77;100669.84;2032369;29;20441;-67
2022/07/16 02:43:18;;;;;;;4.30;0.95;;;;;;;14.68;71.36;100673.66;2030761;29;20056;-66
2022/07/16 02:44:20;;;;;;;1.88;0.77;;;;;;;14.66;70.91;100665.88;2023840;29;20076;-66
2022/07/16 02:45:25;;;;;;;3.08;0.80;;;;;;;14.64;71.32;100673.47;2030963;29;20064;-66
2022/07/16 02:46:30;;;;;;;3.22;0.73;;;;;;;14.62;71.38;100672.97;2024502;29;20064;-66
2022/07/16 02:47:32;;;;;;;7.43;1.00;;;;;;;14.62;71.33;100680.28;2023794;29;20446;-66
2022/07/16 02:48:35;;;;;;;1.88;0.80;;;;;;;14.64;71.21;100668.06;2016391;29;20052;-66
2022/07/16 02:49:37;;;;;;;5.15;0.70;;;;;;;14.61;71.38;100668.66;2016394;29;20052;-66
2022/07/16 02:50:42;;;;;;;3.00;0.80;;;;;;;14.62;71.32;100680.28;2016202;29;20059;-66
2022/07/16 02:51:47;;;;;;;2.90;0.60;;;;;;;14.64;71.52;100676.19;2026431;29;20519;-66
2022/07/16 02:52:54;;;;;;;4.45;0.80;;;;;;;14.65;71.39;100671.56;2038849;29;20063;-66
2022/07/16 02:54:00;;;;;;;4.53;0.70;;;;;;;14.67;71.26;100677.47;2031834;29;20060;-66
2022/07/16 02:55:06;;;;;;;1.75;0.80;;;;;;;14.64;71.01;100668.06;2038939;29;20051;-65
2022/07/16 02:56:13;;;;;;;5.03;0.73;;;;;;;14.60;71.26;100673.28;2031886;29;20071;-66
2022/07/16 02:57:16;;;;;;;3.47;0.82;;;;;;;14.62;71.21;100683.00;2038654;29;20503;-65
2022/07/16 02:58:24;;;;;;;5.13;0.82;;;;;;;14.56;71.65;100676.88;2023461;29;20071;-66
2022/07/16 02:59:28;;;;;;;5.60;0.70;;;;;;;14.58;71.34;100669.28;2017134;29;20048;-65
2022/07/16 03:00:32;;;;;;;3.90;0.70;;;;;;;14.60;71.50;100673.28;2022675;29;20063;-65
2022/07/16 03:01:36;;;;;;;2.58;1.05;;;;;;;14.62;71.56;100680.28;2015850;29;20040;-66
2022/07/16 03:02:43;;;;;;;2.70;0.70;;;;;;;14.64;71.34;100675.38;2008172;29;20049;-66
2022/07/16 03:03:51;;;;;;;2.25;0.75;;;;;;;14.66;71.47;100675.88;2002541;29;20624;-67
2022/07/16 03:04:53;;;;;;;1.77;0.70;;;;;;;14.64;71.23;100678.88;2015786;29;20063;-66
2022/07/16 03:06:02;;;;;;;7.68;0.88;;;;;;;14.66;70.95;100676.69;2015528;29;20060;-66
2022/07/16 03:07:07;;;;;;;3.15;0.70;;;;;;;14.66;71.33;100668.56;2016939;29;20052;-67
2022/07/16 03:08:13;;;;;;;2.67;0.77;;;;;;;14.67;71.16;100669.38;1993017;29;20050;-66
2022/07/16 03:09:15;;;;;;;3.67;0.98;;;;;;;14.63;70.96;100673.75;1988287;29;20051;-66
2022/07/16 03:10:19;;;;;;;5.47;0.90;;;;;;;14.67;71.08;100672.06;2008572;29;20068;-66
2022/07/16 03:11:24;;;;;;;3.17;0.75;;;;;;;14.67;71.13;100678.28;2016010;29;20045;-65
2022/07/16 03:12:28;;;;;;;2.70;0.95;;;;;;;14.64;71.39;100675.38;2000390;29;20061;-65
2022/07/16 03:13:36;;;;;;;3.58;0.80;;;;;;;14.65;71.31;100680.47;2000646;29;20653;-65
2022/07/16 03:14:40;;;;;;;5.38;0.88;;;;;;;14.67;71.44;100682.91;1991047;29;20467;-65
2022/07/16 03:15:42;;;;;;;2.38;0.70;;;;;;;14.67;71.11;100666.66;1993011;29;20897;-65
2022/07/16 03:16:47;;;;;;;3.15;0.80;;;;;;;14.67;71.22;100672.06;2006025;29;20486;-65
2022/07/16 03:17:54;;;;;;;2.65;1.00;;;;;;;14.69;71.18;100676.09;2008142;29;20406;-65
2022/07/16 03:18:57;;;;;;;2.20;0.80;;;;;;;14.70;71.22;100674.19;2014303;29;20065;-65
2022/07/16 03:20:06;;;;;;;4.45;0.80;;;;;;;14.66;71.12;100673.97;2014627;29;20063;-65
2022/07/16 03:21:11;;;;;;;5.68;1.00;;;;;;;14.67;71.08;100678.28;2015524;29;20041;-65
2022/07/16 03:22:22;;;;;;;2.67;0.68;;;;;;;14.68;71.19;100674.47;2007271;29;20037;-66
2022/07/16 03:23:25;;;;;;;1.30;0.70;;;;;;;14.69;71.20;100672.56;2008944;29;20061;-66
2022/07/16 03:24:29;;;;;;;2.25;0.85;;;;;;;14.68;71.17;100674.47;2014970;29;20047;-66
2022/07/16 03:25:31;;;;;;;4.03;0.65;;;;;;;14.70;70.79;100671.47;2014703;29;20052;-65
2022/07/16 03:26:35;;;;;;;3.30;0.75;;;;;;;14.69;70.86;100676.09;2015067;29;20060;-66
2022/07/16 03:27:40;;;;;;;3.88;0.70;;;;;;;14.71;71.14;100673.06;2014726;29;20095;-66
2022/07/16 03:28:46;;;;;;;3.80;0.70;;;;;;;14.72;70.82;100669.25;2015022;29;20706;-66
2022/07/16 03:29:50;;;;;;;2.45;0.70;;;;;;;14.80;70.98;100671.25;2008119;29;20439;-66
2022/07/16 03:30:57;;;;;;;2.45;0.65;;;;;;;14.97;70.32;100671.38;2014556;29;20040;-66
2022/07/16 03:31:59;;;;;;;3.03;0.60;;;;;;;15.13;70.09;100662.91;2007508;29;20053;-66
2022/07/16 03:33:07;;;;;;;3.42;0.65;;;;;;;15.31;69.68;100670.09;1999688;29;20857;-66
2022/07/16 03:34:09;;;;;;;1.65;0.70;;;;;;;15.46;69.66;100669.72;1993848;29;20070;-66
2022/07/16 03:35:13;;;;;;;3.28;0.80;;;;;;;15.60;68.86;100666.13;1999421;29;20070;-66
2022/07/16 03:36:22;;;;;;;2.72;0.90;;;;;;;15.66;68.61;100664.91;1998424;29;20065;-66
2022/07/16 03:37:26;;;;;;;5.07;0.70;;;;;;;15.78;68.31;100657.03;1994067;29;20046;-66
2022/07/16 03:39:53;;;;;;;3.35;0.77;;;;;;;16.05;67.51;100661.47;2007322;29;20197;-66
2022/07/16 03:40:58;;;;;;;1.23;0.60;;;;;;;16.15;66.79;100668.53;2007587;29;20057;-66
2022/07/16 03:42:04;;;;;;;6.57;0.90;;;;;;;16.22;66.08;100660.75;2007522;29;20530;-66
2022/07/16 03:43:07;;;;;;;2.85;0.60;;;;;;;16.38;66.35;100663.81;2000470;29;20505;-66
2022/07/16 03:44:14;;;;;;;2.17;0.70;;;;;;;16.40;65.84;100662.41;1992145;29;20867;-66
2022/07/16 03:45:20;;;;;;;1.20;0.60;;;;;;;16.49;65.36;100661.59;1993269;29;20050;-66
2022/07/16 03:46:27;;;;;;;3.80;0.68;;;;;;;16.57;64.78;100661.63;2001109;29;20969;-66
2022/07/16 03:47:34;;;;;;;1.95;0.60;;;;;;;16.66;64.39;100665.16;2007441;29;20052;-66
2022/07/16 03:48:40;;;;;;;1.67;0.85;;;;;;;16.78;64.41;100661.88;2008099;29;20053;-66
2022/07/16 03:49:42;;;;;;;5.75;0.70;;;;;;;16.87;64.01;100664.59;2000170;29;20605;-66
2022/07/16 03:50:45;;;;;;;1.42;0.70;;;;;;;17.01;64.02;100667.94;1998390;29;20042;-66
2022/07/16 03:51:48;;;;;;;2.08;0.60;;;;;;;17.09;63.43;100663.66;2019348;29;20060;-66
2022/07/16 03:52:51;;;;;;;0.90;0.70;;;;;;;17.19;63.35;100659.81;2015643;29;20068;-66
2022/07/16 03:53:54;;;;;;;4.18;0.70;;;;;;;17.29;63.15;100662.19;2016019;29;20067;-66
2022/07/16 03:55:01;;;;;;;3.72;0.80;;;;;;;17.35;62.39;100666.34;2016389;29;20064;-65
2022/07/16 03:56:06;;;;;;;3.05;0.70;;;;;;;17.47;62.39;100668.44;2023066;29;20048;-67
2022/07/16 03:57:11;;;;;;;3.20;0.77;;;;;;;17.56;62.07;100663.78;2023342;29;20803;-66
2022/07/16 03:58:13;;;;;;;3.50;0.70;;;;;;;17.57;61.68;100659.94;2029496;29;20052;-66
2022/07/16 03:59:18;;;;;;;2.58;0.90;;;;;;;17.62;61.69;100657.03;2038210;29;20082;-66
2022/07/16 04:00:22;;;;;;;2.00;0.70;;;;;;;17.71;61.85;100657.81;2038556;29;20060;-66
2022/07/16 04:01:31;;;;;;;2.33;0.77;;;;;;;17.79;60.95;100657.03;2023452;29;20505;-66
2022/07/16 04:02:36;;;;;;;2.35;0.80;;;;;;;17.88;60.86;100653.50;2008607;29;20061;-66
2022/07/16 04:03:41;;;;;;;2.85;0.60;;;;;;;17.99;60.37;100660.16;2016084;29;20394;-65
2022/07/16 04:04:45;;;;;;;2.67;0.60;;;;;;;18.07;60.18;100662.06;2007735;29;20061;-66
2022/07/16 04:05:53;;;;;;;6.20;0.70;;;;;;;18.14;59.92;100658.81;2009414;29;20058;-66
2022/07/16 04:07:00;;;;;;;3.05;0.70;;;;;;;18.22;59.85;100657.97;2030218;29;20124;-66
2022/07/16 04:08:05;;;;;;;0.85;0.40;;;;;;;18.35;59.78;100653.44;2029784;29;20535;-66
2022/07/16 04:09:13;;;;;;;2.75;0.60;;;;;;;18.41;59.35;100652.13;2030415;29;20056;-66
2022/07/16 04:10:18;;;;;;;0.75;0.50;;;;;;;18.52;59.43;100650.63;2030487;29;20448;-66
2022/07/16 04:11:24;;;;;;;1.75;0.70;;;;;;;18.62;58.87;100658.41;2030660;29;20060;-66
2022/07/16 04:12:29;;;;;;;1.45;0.50;;;;;;;18.65;58.07;100659.66;2030024;29;20063;-65
2022/07/16 04:13:39;;;;;;;1.15;0.60;;;;;;;18.66;58.23;100651.19;2031365;29;20060;-64
2022/07/16 04:14:44;;;;;;;4.18;0.80;;;;;;;18.69;57.74;100655.16;2031519;29;20039;-64
2022/07/16 04:15:51;;;;;;;3.22;0.65;;;;;;;18.63;57.97;100657.28;2030068;29;20078;-64
2022/07/16 04:16:54;;;;;;;1.60;0.82;;;;;;;18.53;58.18;100647.56;2030581;29;20056;-64
2022/07/16 04:18:01;;;;;;;2.03;1.13;;;;;;;18.51;58.30;100649.03;2035342;29;20538;-64
2022/07/16 04:19:04;;;;;;;2.50;0.55;;;;;;;18.45;58.09;100650.34;2038281;29;20059;-64
2022/07/16 04:20:13;;;;;;;2.88;0.70;;;;;;;18.37;58.35;100643.81;2031837;29;20496;-64
2022/07/16 04:21:23;;;;;;;3.13;0.75;;;;;;;18.25;58.65;100641.81;2024290;29;20045;-63
2022/07/16 04:22:30;;;;;;;1.88;0.60;;;;;;;18.24;58.51;100642.91;2023021;29;20083;-64
2022/07/16 04:23:35;;;;;;;2.67;0.52;;;;;;;18.18;58.44;100641.50;2024313;29;20040;-64
2022/07/16 04:24:43;;;;;;;2.75;0.50;;;;;;;18.10;58.46;100639.63;2031592;29;20036;-64
2022/07/16 04:25:49;;;;;;;2.90;0.45;;;;;;;18.08;58.83;100641.88;2031510;29;20035;-67
2022/07/16 04:26:54;;;;;;;0.70;0.47;;;;;;;18.08;58.55;100631.00;2030677;29;20056;-67
2022/07/16 04:27:59;;;;;;;4.70;0.70;;;;;;;18.05;58.41;100637.09;2030039;29;20067;-65
2022/07/16 04:29:06;;;;;;;2.92;0.60;;;;;;;18.01;59.14;100641.59;2022880;29;20040;-67
2022/07/16 04:30:15;;;;;;;7.70;0.85;;;;;;;18.01;59.19;100630.72;2030348;29;20059;-66
2022/07/16 04:31:21;;;;;;;1.55;0.45;;;;;;;18.10;58.89;100631.47;2029811;29;20048;-67
2022/07/16 04:32:26;;;;;;;4.50;0.82;;;;;;;18.17;58.49;100626.31;2031412;29;20472;-66
2022/07/16 04:33:28;;;;;;;2.85;0.60;;;;;;;18.30;58.11;100632.66;2022869;29;20066;-66
2022/07/16 04:34:35;;;;;;;5.45;0.70;;;;;;;18.27;57.32;100633.31;2015825;29;20063;-66
2022/07/16 04:35:38;;;;;;;4.00;0.65;;;;;;;18.20;57.39;100630.31;2023210;29;20513;-66
2022/07/16 04:36:45;;;;;;;5.13;0.98;;;;;;;18.06;57.35;100630.50;2029361;29;20056;-66
2022/07/16 04:37:52;;;;;;;2.70;0.68;;;;;;;17.87;57.54;100624.69;2024538;29;20052;-65
2022/07/16 04:38:54;;;;;;;1.00;0.40;;;;;;;17.71;58.53;100627.88;2031001;29;20728;-65
2022/07/16 04:39:57;;;;;;;3.40;0.57;;;;;;;17.66;58.72;100624.56;2030469;29;20059;-65
2022/07/16 04:41:01;;;;;;;1.63;0.40;;;;;;;17.52;59.24;100624.75;2031313;29;20099;-66
2022/07/16 04:42:08;;;;;;;1.17;0.50;;;;;;;17.49;59.13;100617.25;2023339;29;20056;-66
2022/07/16 04:43:13;;;;;;;0.70;0.40;;;;;;;17.40;59.25;100621.91;2030956;29;20435;-66
2022/07/16 04:44:20;;;;;;;0.57;0.30;;;;;;;17.34;59.24;100621.28;2036091;29;20036;-66
2022/07/16 04:45:23;;;;;;;2.70;0.65;;;;;;;17.27;59.73;100619.03;2038716;29;20570;-66
2022/07/16 04:46:31;;;;;;;2.40;0.50;;;;;;;17.23;59.66;100615.38;2038683;29;20054;-65
2022/07/16 04:47:37;;;;;;;2.00;0.60;;;;;;;17.08;60.39;100616.66;2037998;29;20595;-66
2022/07/16 04:48:40;;;;;;;1.90;0.40;;;;;;;17.10;60.21;100619.06;2031363;29;20484;-66
2022/07/16 04:49:44;;;;;;;3.33;0.63;;;;;;;17.09;59.86;100623.69;2015773;29;20395;-66
2022/07/16 04:50:48;;;;;;;0.30;0.30;;;;;;;17.09;60.09;100617.47;2023540;29;20671;-65
2022/07/16 04:51:54;;;;;;;0.57;0.30;;;;;;;17.07;60.18;100615.06;2027372;29;20043;-66
2022/07/16 04:52:58;;;;;;;4.03;0.52;;;;;;;16.97;60.48;100614.59;2031659;29;20067;-65
2022/07/16 04:54:02;;;;;;;1.63;0.55;;;;;;;16.91;61.15;100612.03;2039004;29;20488;-66
2022/07/16 04:55:05;;;;;;;0.75;0.40;;;;;;;16.81;60.69;100611.56;2038200;29;20048;-65
2022/07/16 04:56:07;;;;;;;0.90;0.38;;;;;;;16.81;60.44;100606.13;2031293;29;20488;-65
2022/07/16 04:57:12;;;;;;;3.92;0.50;;;;;;;16.81;60.42;100611.56;2030810;29;20170;-65
2022/07/16 04:58:14;;;;;;;0.70;0.40;;;;;;;16.72;60.97;100614.25;2030858;29;20052;-65
2022/07/16 04:59:20;;;;;;;1.08;0.40;;;;;;;16.74;60.57;100616.63;2018114;29;20061;-65
2022/07/16 05:00:28;;;;;;;1.38;0.55;;;;;;;16.73;60.45;100625.88;2023098;29;20623;-65
2022/07/16 05:01:41;;;;;;;0.65;0.50;;;;;;;16.66;61.08;100615.50;2022591;29;20760;-65
2022/07/16 05:02:58;;;;;;;1.20;0.50;;;;;;;16.62;60.71;100609.13;2024669;29;20056;-65
2022/07/16 05:04:05;;;;;;;4.93;0.50;;;;;;;16.66;60.62;100613.59;2030528;29;20040;-65
2022/07/16 05:05:15;;;;;;;0.73;0.50;;;;;;;16.64;60.72;100604.94;2024198;29;20048;-66
2022/07/16 05:06:22;;;;;;;1.38;0.38;;;;;;;16.50;60.81;100609.75;2015833;29;20037;-65
2022/07/16 05:07:26;;;;;;;2.13;0.50;;;;;;;16.50;61.06;100609.75;2024186;29;20052;-65